地図

経路データ

SID SEASON NUMBER BASIN SUBBASIN NAME ISO_TIME NATURE LAT LON WMO_WIND WMO_PRES WMO_AGENCY TRACK_TYPE DIST2LAND LANDFALL IFLAG USA_AGENCY USA_ATCF_ID USA_LAT USA_LON USA_RECORD USA_STATUS USA_WIND USA_PRES USA_SSHS USA_R34_NE USA_R34_SE USA_R34_SW USA_R34_NW USA_R50_NE USA_R50_SE USA_R50_SW USA_R50_NW USA_R64_NE USA_R64_SE USA_R64_SW USA_R64_NW USA_POCI USA_ROCI USA_RMW USA_EYE TOKYO_LAT TOKYO_LON TOKYO_GRADE TOKYO_WIND TOKYO_PRES TOKYO_R50_DIR TOKYO_R50_LONG TOKYO_R50_SHORT TOKYO_R30_DIR TOKYO_R30_LONG TOKYO_R30_SHORT TOKYO_LAND CMA_LAT CMA_LON CMA_CAT CMA_WIND CMA_PRES HKO_LAT HKO_LON HKO_CAT HKO_WIND HKO_PRES NEWDELHI_LAT NEWDELHI_LON NEWDELHI_GRADE NEWDELHI_WIND NEWDELHI_PRES NEWDELHI_CI NEWDELHI_DP NEWDELHI_POCI REUNION_LAT REUNION_LON REUNION_TYPE REUNION_WIND REUNION_PRES REUNION_TNUM REUNION_CI REUNION_RMW REUNION_R34_NE REUNION_R34_SE REUNION_R34_SW REUNION_R34_NW REUNION_R50_NE REUNION_R50_SE REUNION_R50_SW REUNION_R50_NW REUNION_R64_NE REUNION_R64_SE REUNION_R64_SW REUNION_R64_NW BOM_LAT BOM_LON BOM_TYPE BOM_WIND BOM_PRES BOM_TNUM BOM_CI BOM_RMW BOM_R34_NE BOM_R34_SE BOM_R34_SW BOM_R34_NW BOM_R50_NE BOM_R50_SE BOM_R50_SW BOM_R50_NW BOM_R64_NE BOM_R64_SE BOM_R64_SW BOM_R64_NW BOM_ROCI BOM_POCI BOM_EYE BOM_POS_METHOD BOM_PRES_METHOD NADI_LAT NADI_LON NADI_CAT NADI_WIND NADI_PRES WELLINGTON_LAT WELLINGTON_LON WELLINGTON_WIND WELLINGTON_PRES DS824_LAT DS824_LON DS824_STAGE DS824_WIND DS824_PRES TD9636_LAT TD9636_LON TD9636_STAGE TD9636_WIND TD9636_PRES TD9635_LAT TD9635_LON TD9635_WIND TD9635_PRES TD9635_ROCI NEUMANN_LAT NEUMANN_LON NEUMANN_CLASS NEUMANN_WIND NEUMANN_PRES MLC_LAT MLC_LON MLC_CLASS MLC_WIND MLC_PRES USA_GUST BOM_GUST BOM_GUST_PER REUNION_GUST REUNION_GUST_PER USA_SEAHGT USA_SEARAD_NE USA_SEARAD_SE USA_SEARAD_SW USA_SEARAD_NW STORM_SPEED STORM_DIR
1940142S08074 1940 26 SI MM NOT_NAMED 1940-05-21 06:00:00 NR -8.30000 74.2000 reunion main 1739 1739 _____O________ -1 -8.30000 74.2000 99 9.90000 2 261
1940142S08074 1940 26 SI MM NOT_NAMED 1940-05-21 09:00:00 NR -8.31569 74.0989 main 1743 1743 _____P________ -1 -8.31569 74.0989 99 2 261
1940142S08074 1940 26 SI MM NOT_NAMED 1940-05-21 12:00:00 NR -8.33227 73.9920 main 1748 1748 _____P________ -1 -8.33227 73.9920 99 2 261
1940142S08074 1940 26 SI MM NOT_NAMED 1940-05-21 15:00:00 NR -8.35062 73.8733 main 1763 1763 _____P________ -1 -8.35062 73.8733 99 3 261
1940142S08074 1940 26 SI MM NOT_NAMED 1940-05-21 18:00:00 NR -8.37165 73.7372 main 1772 1772 _____P________ -1 -8.37165 73.7372 99 3 261
1940142S08074 1940 26 SI MM NOT_NAMED 1940-05-21 21:00:00 NR -8.39624 73.5776 main 1776 1776 _____P________ -1 -8.39624 73.5776 99 3 261
1940142S08074 1940 26 SI MM NOT_NAMED 1940-05-22 00:00:00 NR -8.42527 73.3888 main 1786 1786 _____P________ -1 -8.42527 73.3888 99 4 261
1940142S08074 1940 26 SI MM NOT_NAMED 1940-05-22 03:00:00 NR -8.45957 73.1649 main 1805 1805 _____P________ -1 -8.45957 73.1649 99 5 261
1940142S08074 1940 26 SI MM NOT_NAMED 1940-05-22 06:00:00 NR -8.50000 72.9000 reunion main 1820 1820 _____O________ -1 -8.50000 72.9000 99 9.90000 6 261
1940142S08074 1940 26 SI MM NOT_NAMED 1940-05-22 09:00:00 NR -8.54708 72.5907 main 1835 1835 _____P________ -1 -8.54708 72.5907 99 7 261
1940142S08074 1940 26 SI MM NOT_NAMED 1940-05-22 12:00:00 NR -8.60021 72.2439 main 1866 1866 _____P________ -1 -8.60021 72.2439 99 7 261
1940142S08074 1940 26 SI MM NOT_NAMED 1940-05-22 15:00:00 NR -8.65852 71.8689 main 1892 1892 _____P________ -1 -8.65852 71.8689 99 8 261
1940142S08074 1940 26 SI MM NOT_NAMED 1940-05-22 18:00:00 NR -8.72120 71.4751 main 1914 1914 _____P________ -1 -8.72120 71.4751 99 8 261
1940142S08074 1940 26 SI MM NOT_NAMED 1940-05-22 21:00:00 NR -8.78742 71.0719 main 1917 1877 _____P________ -1 -8.78742 71.0719 99 8 260
1940142S08074 1940 26 SI MM NOT_NAMED 1940-05-23 00:00:00 NR -8.85644 70.6687 main 1877 1845 _____P________ -1 -8.85644 70.6687 99 8 260
1940142S08074 1940 26 SI MM NOT_NAMED 1940-05-23 03:00:00 NR -8.92753 70.2750 main 1845 1806 _____P________ -1 -8.92753 70.2750 99 8 259
1940142S08074 1940 26 SI MM NOT_NAMED 1940-05-23 06:00:00 NR -9.00000 69.9000 reunion main 1806 1775 _____O________ -1 -9.00000 69.9000 99 9.90000 7 258
1940142S08074 1940 26 SI MM NOT_NAMED 1940-05-23 09:00:00 NR -9.06993 69.5799 main 1775 1752 _____P________ -1 -9.06993 69.5799 99 6 257
1940142S08074 1940 26 SI MM NOT_NAMED 1940-05-23 12:00:00 NR -9.14209 69.2746 main 1752 1721 _____P________ -1 -9.14209 69.2746 99 6 256
1940142S08074 1940 26 SI MM NOT_NAMED 1940-05-23 15:00:00 NR -9.21610 68.9813 main 1721 1690 _____P________ -1 -9.21610 68.9813 99 6 255
1940142S08074 1940 26 SI MM NOT_NAMED 1940-05-23 18:00:00 NR -9.29157 68.6974 main 1690 1659 _____P________ -1 -9.29157 68.6974 99 6 255
1940142S08074 1940 26 SI MM NOT_NAMED 1940-05-23 21:00:00 NR -9.36811 68.4200 main 1659 1644 _____P________ -1 -9.36811 68.4200 99 6 254
1940142S08074 1940 26 SI MM NOT_NAMED 1940-05-24 00:00:00 NR -9.44531 68.1465 main 1637 1614 _____P________ -1 -9.44531 68.1465 99 6 254
1940142S08074 1940 26 SI MM NOT_NAMED 1940-05-24 03:00:00 NR -9.52275 67.8740 main 1614 1584 _____P________ -1 -9.52275 67.8740 99 6 254
1940142S08074 1940 26 SI MM NOT_NAMED 1940-05-24 06:00:00 NR -9.60000 67.6000 reunion main 1584 1554 _____O________ -1 -9.60000 67.6000 99 9.90000 6 254
1940142S08074 1940 26 SI MM NOT_NAMED 1940-05-24 09:00:00 NR -9.67873 67.3068 main 1554 1524 _____P________ -1 -9.67873 67.3068 99 6 255
1940142S08074 1940 26 SI MM NOT_NAMED 1940-05-24 12:00:00 NR -9.75797 67.0128 main 1524 1503 _____P________ -1 -9.75797 67.0128 99 6 255
1940142S08074 1940 26 SI MM NOT_NAMED 1940-05-24 15:00:00 NR -9.83694 66.7194 main 1503 1474 _____P________ -1 -9.83694 66.7194 99 6 255
1940142S08074 1940 26 SI MM NOT_NAMED 1940-05-24 18:00:00 NR -9.91483 66.4276 main 1474 1452 _____P________ -1 -9.91483 66.4276 99 6 255
1940142S08074 1940 26 SI MM NOT_NAMED 1940-05-24 21:00:00 NR -9.99086 66.1385 main 1445 1423 _____P________ -1 -9.99086 66.1385 99 6 255
1940142S08074 1940 26 SI MM NOT_NAMED 1940-05-25 00:00:00 NR -10.0643 65.8535 main 1423 1403 _____P________ -1 -10.0643 65.8535 99 6 256
1940142S08074 1940 26 SI MM NOT_NAMED 1940-05-25 03:00:00 NR -10.1342 65.5736 main 1403 1375 _____P________ -1 -10.1342 65.5736 99 6 256
1940142S08074 1940 26 SI MM NOT_NAMED 1940-05-25 06:00:00 NR -10.2000 65.3000 reunion main 1375 1353 _____O________ -1 -10.2000 65.3000 99 9.90000 5 257
1940142S08074 1940 26 SI MM NOT_NAMED 1940-05-25 09:00:00 NR -10.2571 65.0378 main 1347 1335 _____P________ -1 -10.2571 65.0378 99 5 258
1940142S08074 1940 26 SI MM NOT_NAMED 1940-05-25 12:00:00 NR -10.3099 64.7822 main 1335 1307 _____P________ -1 -10.3099 64.7822 99 5 258
1940142S08074 1940 26 SI MM NOT_NAMED 1940-05-25 15:00:00 NR -10.3594 64.5317 main 1307 1295 _____P________ -1 -10.3594 64.5317 99 5 259
1940142S08074 1940 26 SI MM NOT_NAMED 1940-05-25 18:00:00 NR -10.4069 64.2846 main 1295 1274 _____P________ -1 -10.4069 64.2846 99 5 259
1940142S08074 1940 26 SI MM NOT_NAMED 1940-05-25 21:00:00 NR -10.4535 64.0395 main 1268 1257 _____P________ -1 -10.4535 64.0395 99 5 259
1940142S08074 1940 26 SI MM NOT_NAMED 1940-05-26 00:00:00 NR -10.5005 63.7947 main 1257 1246 _____P________ -1 -10.5005 63.7947 99 5 259
1940142S08074 1940 26 SI MM NOT_NAMED 1940-05-26 03:00:00 NR -10.5489 63.5487 main 1241 1220 _____P________ -1 -10.5489 63.5487 99 5 258
1940142S08074 1940 26 SI MM NOT_NAMED 1940-05-26 06:00:00 NR -10.6000 63.3000 reunion main 1220 1195 _____O________ -1 -10.6000 63.3000 99 9.90000 5 257
1940142S08074 1940 26 SI MM NOT_NAMED 1940-05-26 09:00:00 NR -10.6655 63.0308 main 1195 1185 _____P________ -1 -10.6655 63.0308 99 6 256
1940142S08074 1940 26 SI MM NOT_NAMED 1940-05-26 12:00:00 NR -10.7341 62.7580 main 1185 1160 _____P________ -1 -10.7341 62.7580 99 6 256
1940142S08074 1940 26 SI MM NOT_NAMED 1940-05-26 15:00:00 NR -10.8038 62.4845 main 1160 1136 _____P________ -1 -10.8038 62.4845 99 6 255
1940142S08074 1940 26 SI MM NOT_NAMED 1940-05-26 18:00:00 NR -10.8726 62.2128 main 1136 1127 _____P________ -1 -10.8726 62.2128 99 5 256
1940142S08074 1940 26 SI MM NOT_NAMED 1940-05-26 21:00:00 NR -10.9386 61.9458 main 1123 1104 _____P________ -1 -10.9386 61.9458 99 5 256
1940142S08074 1940 26 SI MM NOT_NAMED 1940-05-27 00:00:00 NR -10.9998 61.6862 main 1104 1086 _____P________ -1 -10.9998 61.6862 99 5 257
1940142S08074 1940 26 SI MM NOT_NAMED 1940-05-27 03:00:00 NR -11.0542 61.4366 main 1082 1074 _____P________ -1 -11.0542 61.4366 99 5 258
1940142S08074 1940 26 SI MM NOT_NAMED 1940-05-27 06:00:00 NR -11.1000 61.2000 reunion main 1074 1067 _____O________ -1 -11.1000 61.2000 99 9.90000 4 261
1940142S08074 1940 26 SI MM NOT_NAMED 1940-05-27 09:00:00 NR -11.1230 60.9996 main 1067 1060 _____P________ -1 -11.1230 60.9996 99 4 264
1940142S08074 1940 26 SI MM NOT_NAMED 1940-05-27 12:00:00 NR -11.1367 60.8139 main 1060 1054 _____P________ -1 -11.1367 60.8139 99 4 267
1940142S08074 1940 26 SI MM NOT_NAMED 1940-05-27 15:00:00 NR -11.1443 60.6372 main 1054 1050 _____P________ -1 -11.1443 60.6372 99 3 268
1940142S08074 1940 26 SI MM NOT_NAMED 1940-05-27 18:00:00 NR -11.1489 60.4643 main 1050 1034 _____P________ -1 -11.1489 60.4643 99 3 268
1940142S08074 1940 26 SI MM NOT_NAMED 1940-05-27 21:00:00 NR -11.1537 60.2896 main 1034 1028 _____P________ -1 -11.1537 60.2896 99 4 268
1940142S08074 1940 26 SI MM NOT_NAMED 1940-05-28 00:00:00 NR -11.1617 60.1076 main 1028 1023 _____P________ -1 -11.1617 60.1076 99 4 267
1940142S08074 1940 26 SI MM NOT_NAMED 1940-05-28 03:00:00 NR -11.1761 59.9129 main 1023 1018 _____P________ -1 -11.1761 59.9129 99 4 265
1940142S08074 1940 26 SI MM NOT_NAMED 1940-05-28 06:00:00 NR -11.2000 59.7000 reunion main 1018 1014 _____O________ -1 -11.2000 59.7000 99 9.90000 5 262
1940142S08074 1940 26 SI MM NOT_NAMED 1940-05-28 09:00:00 NR -11.2441 59.4441 main 1012 997 _____P________ -1 -11.2441 59.4441 99 5 259
1940142S08074 1940 26 SI MM NOT_NAMED 1940-05-28 12:00:00 NR -11.2966 59.1705 main 997 982 _____P________ -1 -11.2966 59.1705 99 6 259
1940142S08074 1940 26 SI MM NOT_NAMED 1940-05-28 15:00:00 NR -11.3559 58.8836 main 982 960 _____P________ -1 -11.3559 58.8836 99 6 258
1940142S08074 1940 26 SI MM NOT_NAMED 1940-05-28 18:00:00 NR -11.4204 58.5877 main 960 926 _____P________ -1 -11.4204 58.5877 99 6 257
1940142S08074 1940 26 SI MM NOT_NAMED 1940-05-28 21:00:00 NR -11.4887 58.2871 main 926 892 _____P________ -1 -11.4887 58.2871 99 6 257
1940142S08074 1940 26 SI MM NOT_NAMED 1940-05-29 00:00:00 NR -11.5590 57.9861 main 892 860 _____P________ -1 -11.5590 57.9861 99 6 256
1940142S08074 1940 26 SI MM NOT_NAMED 1940-05-29 03:00:00 NR -11.6300 57.6889 main 860 825 _____P________ -1 -11.6300 57.6889 99 6 256
1940142S08074 1940 26 SI MM NOT_NAMED 1940-05-29 06:00:00 NR -11.7000 57.4000 reunion main 825 791 _____O________ -1 -11.7000 57.4000 99 9.90000 6 256
1940142S08074 1940 26 SI MM NOT_NAMED 1940-05-29 09:00:00 NR -11.7662 57.1246 main 791 770 _____P________ -1 -11.7662 57.1246 99 6 256
1940142S08074 1940 26 SI MM NOT_NAMED 1940-05-29 12:00:00 NR -11.8329 56.8541 main 770 735 _____P________ -1 -11.8329 56.8541 99 5 256
1940142S08074 1940 26 SI MM NOT_NAMED 1940-05-29 15:00:00 NR -11.8994 56.5897 main 735 701 _____P________ -1 -11.8994 56.5897 99 5 255
1940142S08074 1940 26 SI MM NOT_NAMED 1940-05-29 18:00:00 NR -11.9648 56.3326 main 701 680 _____P________ -1 -11.9648 56.3326 99 5 255
1940142S08074 1940 26 SI MM NOT_NAMED 1940-05-29 21:00:00 NR -12.0284 56.0839 main 680 656 _____P________ -1 -12.0284 56.0839 99 5 255
1940142S08074 1940 26 SI MM NOT_NAMED 1940-05-30 00:00:00 NR -12.0893 55.8448 main 646 624 _____P________ -1 -12.0893 55.8448 99 5 255
1940142S08074 1940 26 SI MM NOT_NAMED 1940-05-30 03:00:00 NR -12.1468 55.6164 main 624 601 _____P________ -1 -12.1468 55.6164 99 4 256
1940142S08074 1940 26 SI MM NOT_NAMED 1940-05-30 06:00:00 NR -12.2000 55.4000 reunion main 601 579 _____O________ -1 -12.2000 55.4000 99 9.90000 4 256
1940142S08074 1940 26 SI MM NOT_NAMED 1940-05-30 09:00:00 NR -12.2485 55.1963 main 579 556 _____P________ -1 -12.2485 55.1963 99 4 257
1940142S08074 1940 26 SI MM NOT_NAMED 1940-05-30 12:00:00 NR -12.2926 55.0040 main 556 535 _____P________ -1 -12.2926 55.0040 99 4 257
1940142S08074 1940 26 SI MM NOT_NAMED 1940-05-30 15:00:00 NR -12.3329 54.8216 main 535 521 _____P________ -1 -12.3329 54.8216 99 4 257
1940142S08074 1940 26 SI MM NOT_NAMED 1940-05-30 18:00:00 NR -12.3701 54.6475 main 511 500 _____P________ -1 -12.3701 54.6475 99 3 258
1940142S08074 1940 26 SI MM NOT_NAMED 1940-05-30 21:00:00 NR -12.4049 54.4799 main 500 479 _____P________ -1 -12.4049 54.4799 99 3 258
1940142S08074 1940 26 SI MM NOT_NAMED 1940-05-31 00:00:00 NR -12.4377 54.3172 main 479 466 _____P________ -1 -12.4377 54.3172 99 3 258
1940142S08074 1940 26 SI MM NOT_NAMED 1940-05-31 03:00:00 NR -12.4692 54.1578 main 466 445 _____P________ -1 -12.4692 54.1578 99 3 259
1940142S08074 1940 26 SI MM NOT_NAMED 1940-05-31 06:00:00 NR -12.5000 54.0000 reunion main 445 _____O________ -1 -12.5000 54.0000 99 9.90000 3 259

IBTrACS Databaseについて

本データベースは、米国NOAAが公開する1842年以降の世界の熱帯低気圧のベストトラックデータアーカイブInternational Best Track Archive for Climate Stewardship (IBTrACS)を、ウェブで閲覧しやすい形式に変換したものです。

最終更新日:2021-10-19